sensor_id;sensor_type;location;lat;lon;timestamp;P1;durP1;ratioP1;P2;durP2;ratioP2
56523;SDS011;42422;47.540;18.712;2022-07-10T00:01:00;1.08;;;0.70;;
56523;SDS011;42422;47.540;18.712;2022-07-10T00:03:25;1.30;;;0.70;;
56523;SDS011;42422;47.540;18.712;2022-07-10T00:05:51;1.60;;;0.80;;
56523;SDS011;42422;47.540;18.712;2022-07-10T00:08:16;2.20;;;0.80;;
56523;SDS011;42422;47.540;18.712;2022-07-10T00:10:41;1.73;;;0.82;;
56523;SDS011;42422;47.540;18.712;2022-07-10T00:13:07;1.75;;;0.80;;
56523;SDS011;42422;47.540;18.712;2022-07-10T00:15:32;1.85;;;1.05;;
56523;SDS011;42422;47.540;18.712;2022-07-10T00:17:58;2.75;;;0.90;;
56523;SDS011;42422;47.540;18.712;2022-07-10T00:20:23;1.08;;;0.70;;
56523;SDS011;42422;47.540;18.712;2022-07-10T00:22:49;2.17;;;1.13;;
56523;SDS011;42422;47.540;18.712;2022-07-10T00:25:14;1.33;;;0.80;;
56523;SDS011;42422;47.540;18.712;2022-07-10T00:27:41;1.25;;;0.93;;
56523;SDS011;42422;47.540;18.712;2022-07-10T00:30:06;1.40;;;0.80;;
56523;SDS011;42422;47.540;18.712;2022-07-10T00:32:33;1.10;;;0.70;;
56523;SDS011;42422;47.540;18.712;2022-07-10T00:34:58;2.17;;;0.80;;
56523;SDS011;42422;47.540;18.712;2022-07-10T00:37:24;1.50;;;0.90;;
56523;SDS011;42422;47.540;18.712;2022-07-10T00:39:49;1.63;;;0.75;;
56523;SDS011;42422;47.540;18.712;2022-07-10T00:42:15;1.23;;;0.85;;
56523;SDS011;42422;47.540;18.712;2022-07-10T00:44:41;1.67;;;0.93;;
56523;SDS011;42422;47.540;18.712;2022-07-10T00:47:07;1.30;;;0.85;;
56523;SDS011;42422;47.540;18.712;2022-07-10T00:49:34;4.10;;;1.20;;
56523;SDS011;42422;47.540;18.712;2022-07-10T00:52:02;2.55;;;1.00;;
56523;SDS011;42422;47.540;18.712;2022-07-10T00:54:30;1.20;;;0.75;;
56523;SDS011;42422;47.540;18.712;2022-07-10T00:57:00;1.50;;;0.90;;
56523;SDS011;42422;47.540;18.712;2022-07-10T00:59:26;2.78;;;0.93;;
56523;SDS011;42422;47.540;18.712;2022-07-10T01:01:52;1.50;;;0.90;;
56523;SDS011;42422;47.540;18.712;2022-07-10T01:04:18;1.23;;;0.90;;
56523;SDS011;42422;47.540;18.712;2022-07-10T01:06:44;1.65;;;0.88;;
56523;SDS011;42422;47.540;18.712;2022-07-10T01:09:10;1.33;;;0.82;;
56523;SDS011;42422;47.540;18.712;2022-07-10T01:11:36;1.70;;;1.02;;
56523;SDS011;42422;47.540;18.712;2022-07-10T01:14:02;1.45;;;0.90;;
56523;SDS011;42422;47.540;18.712;2022-07-10T01:16:28;2.80;;;1.10;;
56523;SDS011;42422;47.540;18.712;2022-07-10T01:18:54;1.13;;;0.85;;
56523;SDS011;42422;47.540;18.712;2022-07-10T01:23:49;1.33;;;0.80;;
56523;SDS011;42422;47.540;18.712;2022-07-10T01:26:14;2.33;;;0.80;;
56523;SDS011;42422;47.540;18.712;2022-07-10T01:28:40;1.60;;;1.00;;
56523;SDS011;42422;47.540;18.712;2022-07-10T01:31:05;2.00;;;1.02;;
56523;SDS011;42422;47.540;18.712;2022-07-10T01:33:31;1.75;;;1.00;;
56523;SDS011;42422;47.540;18.712;2022-07-10T01:35:56;1.55;;;1.00;;
56523;SDS011;42422;47.540;18.712;2022-07-10T01:38:21;1.70;;;1.10;;
56523;SDS011;42422;47.540;18.712;2022-07-10T01:40:47;1.17;;;0.70;;
56523;SDS011;42422;47.540;18.712;2022-07-10T01:43:12;1.67;;;0.93;;
56523;SDS011;42422;47.540;18.712;2022-07-10T01:45:37;2.30;;;1.00;;
56523;SDS011;42422;47.540;18.712;2022-07-10T01:48:03;1.55;;;0.90;;
56523;SDS011;42422;47.540;18.712;2022-07-10T01:50:28;1.83;;;0.90;;
56523;SDS011;42422;47.540;18.712;2022-07-10T01:52:53;1.55;;;0.80;;
56523;SDS011;42422;47.540;18.712;2022-07-10T01:55:19;1.30;;;1.00;;
56523;SDS011;42422;47.540;18.712;2022-07-10T01:57:44;2.30;;;1.00;;
56523;SDS011;42422;47.540;18.712;2022-07-10T02:00:10;2.65;;;1.15;;
56523;SDS011;42422;47.540;18.712;2022-07-10T02:02:36;1.48;;;0.93;;
56523;SDS011;42422;47.540;18.712;2022-07-10T02:05:01;1.40;;;0.80;;
56523;SDS011;42422;47.540;18.712;2022-07-10T02:07:26;2.00;;;0.85;;
56523;SDS011;42422;47.540;18.712;2022-07-10T02:09:52;1.40;;;0.90;;
56523;SDS011;42422;47.540;18.712;2022-07-10T02:12:17;1.40;;;0.90;;
56523;SDS011;42422;47.540;18.712;2022-07-10T02:14:43;1.98;;;1.25;;
56523;SDS011;42422;47.540;18.712;2022-07-10T02:17:08;1.73;;;1.10;;
56523;SDS011;42422;47.540;18.712;2022-07-10T02:19:34;1.73;;;0.98;;
56523;SDS011;42422;47.540;18.712;2022-07-10T02:22:00;2.08;;;1.05;;
56523;SDS011;42422;47.540;18.712;2022-07-10T02:24:25;2.53;;;1.10;;
56523;SDS011;42422;47.540;18.712;2022-07-10T02:26:50;1.83;;;1.08;;
56523;SDS011;42422;47.540;18.712;2022-07-10T02:29:16;1.50;;;1.00;;
56523;SDS011;42422;47.540;18.712;2022-07-10T02:31:42;1.77;;;1.08;;
56523;SDS011;42422;47.540;18.712;2022-07-10T02:34:08;2.38;;;1.30;;
56523;SDS011;42422;47.540;18.712;2022-07-10T02:36:34;2.55;;;0.95;;
56523;SDS011;42422;47.540;18.712;2022-07-10T02:38:59;2.28;;;1.20;;
56523;SDS011;42422;47.540;18.712;2022-07-10T02:41:25;2.63;;;1.15;;
56523;SDS011;42422;47.540;18.712;2022-07-10T02:43:50;2.38;;;1.40;;
56523;SDS011;42422;47.540;18.712;2022-07-10T02:46:15;2.58;;;1.20;;
56523;SDS011;42422;47.540;18.712;2022-07-10T02:48:41;5.40;;;1.35;;
56523;SDS011;42422;47.540;18.712;2022-07-10T02:51:06;2.08;;;1.30;;
56523;SDS011;42422;47.540;18.712;2022-07-10T02:53:32;1.55;;;1.05;;
56523;SDS011;42422;47.540;18.712;2022-07-10T02:55:57;2.70;;;1.20;;
56523;SDS011;42422;47.540;18.712;2022-07-10T02:58:22;2.28;;;1.42;;
56523;SDS011;42422;47.540;18.712;2022-07-10T03:00:48;2.67;;;1.40;;
56523;SDS011;42422;47.540;18.712;2022-07-10T03:03:14;2.13;;;1.27;;
56523;SDS011;42422;47.540;18.712;2022-07-10T03:05:41;1.88;;;1.30;;
56523;SDS011;42422;47.540;18.712;2022-07-10T03:08:07;3.17;;;1.13;;
56523;SDS011;42422;47.540;18.712;2022-07-10T03:10:32;4.40;;;1.30;;
56523;SDS011;42422;47.540;18.712;2022-07-10T03:12:58;2.00;;;1.27;;
56523;SDS011;42422;47.540;18.712;2022-07-10T03:15:23;4.20;;;1.27;;
56523;SDS011;42422;47.540;18.712;2022-07-10T03:17:49;1.98;;;1.23;;
56523;SDS011;42422;47.540;18.712;2022-07-10T03:20:14;2.35;;;1.63;;
56523;SDS011;42422;47.540;18.712;2022-07-10T03:22:40;2.45;;;1.58;;
56523;SDS011;42422;47.540;18.712;2022-07-10T03:25:05;1.85;;;1.25;;
56523;SDS011;42422;47.540;18.712;2022-07-10T03:27:31;1.45;;;1.00;;
56523;SDS011;42422;47.540;18.712;2022-07-10T03:29:56;2.05;;;1.25;;
56523;SDS011;42422;47.540;18.712;2022-07-10T03:32:22;2.72;;;1.20;;
56523;SDS011;42422;47.540;18.712;2022-07-10T03:34:47;3.00;;;1.33;;
56523;SDS011;42422;47.540;18.712;2022-07-10T03:37:12;2.25;;;1.45;;
56523;SDS011;42422;47.540;18.712;2022-07-10T03:39:38;2.10;;;1.50;;
56523;SDS011;42422;47.540;18.712;2022-07-10T03:42:03;2.05;;;1.10;;
56523;SDS011;42422;47.540;18.712;2022-07-10T03:44:30;2.78;;;1.50;;
56523;SDS011;42422;47.540;18.712;2022-07-10T03:46:58;2.00;;;1.38;;
56523;SDS011;42422;47.540;18.712;2022-07-10T03:49:24;2.40;;;1.20;;
56523;SDS011;42422;47.540;18.712;2022-07-10T03:51:50;2.75;;;1.42;;
56523;SDS011;42422;47.540;18.712;2022-07-10T03:54:15;2.03;;;1.42;;
56523;SDS011;42422;47.540;18.712;2022-07-10T03:56:41;2.08;;;1.38;;
56523;SDS011;42422;47.540;18.712;2022-07-10T03:59:25;2.60;;;1.80;;
56523;SDS011;42422;47.540;18.712;2022-07-10T04:01:50;3.00;;;1.48;;
56523;SDS011;42422;47.540;18.712;2022-07-10T04:04:15;1.95;;;1.13;;
56523;SDS011;42422;47.540;18.712;2022-07-10T04:06:41;2.53;;;1.40;;
56523;SDS011;42422;47.540;18.712;2022-07-10T04:09:06;3.08;;;1.20;;
56523;SDS011;42422;47.540;18.712;2022-07-10T04:11:32;2.58;;;1.23;;
56523;SDS011;42422;47.540;18.712;2022-07-10T04:13:57;3.63;;;1.40;;
56523;SDS011;42422;47.540;18.712;2022-07-10T04:16:23;2.15;;;1.42;;
56523;SDS011;42422;47.540;18.712;2022-07-10T04:18:48;1.90;;;1.50;;
56523;SDS011;42422;47.540;18.712;2022-07-10T04:21:14;2.30;;;1.25;;
56523;SDS011;42422;47.540;18.712;2022-07-10T04:23:40;2.35;;;1.30;;
56523;SDS011;42422;47.540;18.712;2022-07-10T04:26:05;3.38;;;1.25;;
56523;SDS011;42422;47.540;18.712;2022-07-10T04:28:30;1.98;;;1.30;;
56523;SDS011;42422;47.540;18.712;2022-07-10T04:30:56;1.65;;;1.17;;
56523;SDS011;42422;47.540;18.712;2022-07-10T04:33:21;2.95;;;1.20;;
56523;SDS011;42422;47.540;18.712;2022-07-10T04:35:46;2.10;;;1.23;;
56523;SDS011;42422;47.540;18.712;2022-07-10T04:38:12;2.10;;;1.40;;
56523;SDS011;42422;47.540;18.712;2022-07-10T04:40:37;3.25;;;1.33;;
56523;SDS011;42422;47.540;18.712;2022-07-10T04:43:02;3.35;;;1.20;;
56523;SDS011;42422;47.540;18.712;2022-07-10T04:45:28;4.32;;;1.23;;
56523;SDS011;42422;47.540;18.712;2022-07-10T04:47:53;1.95;;;1.17;;
56523;SDS011;42422;47.540;18.712;2022-07-10T04:50:18;4.40;;;1.45;;
56523;SDS011;42422;47.540;18.712;2022-07-10T04:52:44;3.17;;;1.25;;
56523;SDS011;42422;47.540;18.712;2022-07-10T04:55:09;2.40;;;1.35;;
56523;SDS011;42422;47.540;18.712;2022-07-10T04:57:35;2.42;;;1.50;;
56523;SDS011;42422;47.540;18.712;2022-07-10T05:00:00;3.47;;;1.48;;
56523;SDS011;42422;47.540;18.712;2022-07-10T05:02:26;1.75;;;1.17;;
56523;SDS011;42422;47.540;18.712;2022-07-10T05:04:52;3.63;;;1.40;;
56523;SDS011;42422;47.540;18.712;2022-07-10T05:07:17;1.98;;;1.33;;
56523;SDS011;42422;47.540;18.712;2022-07-10T05:09:43;3.30;;;1.60;;
56523;SDS011;42422;47.540;18.712;2022-07-10T05:12:09;2.08;;;1.40;;
56523;SDS011;42422;47.540;18.712;2022-07-10T05:14:34;1.70;;;1.20;;
56523;SDS011;42422;47.540;18.712;2022-07-10T05:17:00;2.25;;;1.40;;
56523;SDS011;42422;47.540;18.712;2022-07-10T05:19:25;2.03;;;1.15;;
56523;SDS011;42422;47.540;18.712;2022-07-10T05:21:50;2.00;;;1.30;;
56523;SDS011;42422;47.540;18.712;2022-07-10T05:24:16;2.95;;;1.63;;
56523;SDS011;42422;47.540;18.712;2022-07-10T05:26:41;2.42;;;1.30;;
56523;SDS011;42422;47.540;18.712;2022-07-10T05:29:07;2.30;;;1.45;;
56523;SDS011;42422;47.540;18.712;2022-07-10T05:31:32;1.85;;;1.27;;
56523;SDS011;42422;47.540;18.712;2022-07-10T05:33:58;4.05;;;1.80;;
56523;SDS011;42422;47.540;18.712;2022-07-10T05:36:23;3.30;;;1.45;;
56523;SDS011;42422;47.540;18.712;2022-07-10T05:38:49;2.17;;;1.40;;
56523;SDS011;42422;47.540;18.712;2022-07-10T05:41:14;3.13;;;1.50;;
56523;SDS011;42422;47.540;18.712;2022-07-10T05:43:40;1.90;;;1.40;;
56523;SDS011;42422;47.540;18.712;2022-07-10T05:46:05;2.25;;;1.45;;
56523;SDS011;42422;47.540;18.712;2022-07-10T05:48:31;2.22;;;1.55;;
56523;SDS011;42422;47.540;18.712;2022-07-10T05:50:56;2.17;;;1.60;;
56523;SDS011;42422;47.540;18.712;2022-07-10T05:53:22;3.30;;;1.90;;
56523;SDS011;42422;47.540;18.712;2022-07-10T05:55:47;2.38;;;1.38;;
56523;SDS011;42422;47.540;18.712;2022-07-10T05:58:13;2.20;;;1.40;;
56523;SDS011;42422;47.540;18.712;2022-07-10T06:00:39;2.58;;;1.38;;
56523;SDS011;42422;47.540;18.712;2022-07-10T06:03:04;1.98;;;1.42;;
56523;SDS011;42422;47.540;18.712;2022-07-10T06:05:30;1.80;;;1.25;;
56523;SDS011;42422;47.540;18.712;2022-07-10T06:07:55;2.78;;;1.25;;
56523;SDS011;42422;47.540;18.712;2022-07-10T06:10:20;2.10;;;1.17;;
56523;SDS011;42422;47.540;18.712;2022-07-10T06:12:46;2.15;;;1.33;;
56523;SDS011;42422;47.540;18.712;2022-07-10T06:15:11;1.60;;;1.00;;
56523;SDS011;42422;47.540;18.712;2022-07-10T06:17:37;2.00;;;1.40;;
56523;SDS011;42422;47.540;18.712;2022-07-10T06:20:03;2.60;;;1.17;;
56523;SDS011;42422;47.540;18.712;2022-07-10T06:22:28;2.40;;;1.35;;
56523;SDS011;42422;47.540;18.712;2022-07-10T06:24:59;2.08;;;1.23;;
56523;SDS011;42422;47.540;18.712;2022-07-10T06:27:29;2.42;;;1.20;;
56523;SDS011;42422;47.540;18.712;2022-07-10T06:29:55;1.40;;;1.00;;
56523;SDS011;42422;47.540;18.712;2022-07-10T06:32:21;2.15;;;1.42;;
56523;SDS011;42422;47.540;18.712;2022-07-10T06:34:46;3.63;;;1.50;;
56523;SDS011;42422;47.540;18.712;2022-07-10T06:37:12;1.55;;;1.20;;
56523;SDS011;42422;47.540;18.712;2022-07-10T06:39:38;1.88;;;1.30;;
56523;SDS011;42422;47.540;18.712;2022-07-10T06:42:04;2.95;;;1.25;;
56523;SDS011;42422;47.540;18.712;2022-07-10T06:44:32;2.00;;;1.30;;
56523;SDS011;42422;47.540;18.712;2022-07-10T06:46:58;1.83;;;1.35;;
56523;SDS011;42422;47.540;18.712;2022-07-10T06:49:42;1.70;;;1.20;;
56523;SDS011;42422;47.540;18.712;2022-07-10T06:52:08;2.28;;;1.40;;
56523;SDS011;42422;47.540;18.712;2022-07-10T06:54:34;2.35;;;1.27;;
56523;SDS011;42422;47.540;18.712;2022-07-10T06:57:00;1.95;;;1.33;;
56523;SDS011;42422;47.540;18.712;2022-07-10T06:59:26;1.40;;;0.85;;
56523;SDS011;42422;47.540;18.712;2022-07-10T07:01:52;1.55;;;0.95;;
56523;SDS011;42422;47.540;18.712;2022-07-10T07:04:17;3.13;;;0.98;;
56523;SDS011;42422;47.540;18.712;2022-07-10T07:06:43;2.30;;;1.13;;
56523;SDS011;42422;47.540;18.712;2022-07-10T07:09:08;3.08;;;1.10;;
56523;SDS011;42422;47.540;18.712;2022-07-10T07:11:33;1.70;;;1.15;;
56523;SDS011;42422;47.540;18.712;2022-07-10T07:13:59;2.00;;;1.25;;
56523;SDS011;42422;47.540;18.712;2022-07-10T07:16:24;2.10;;;1.45;;
56523;SDS011;42422;47.540;18.712;2022-07-10T07:19:03;1.73;;;0.98;;
56523;SDS011;42422;47.540;18.712;2022-07-10T07:21:29;1.90;;;1.17;;
56523;SDS011;42422;47.540;18.712;2022-07-10T07:24:14;2.22;;;1.33;;
56523;SDS011;42422;47.540;18.712;2022-07-10T07:26:40;1.50;;;1.13;;
56523;SDS011;42422;47.540;18.712;2022-07-10T07:29:05;1.70;;;1.10;;
56523;SDS011;42422;47.540;18.712;2022-07-10T07:31:30;4.53;;;1.30;;
56523;SDS011;42422;47.540;18.712;2022-07-10T07:33:56;1.92;;;1.30;;
56523;SDS011;42422;47.540;18.712;2022-07-10T07:36:22;3.65;;;1.50;;
56523;SDS011;42422;47.540;18.712;2022-07-10T07:38:47;7.15;;;1.65;;
56523;SDS011;42422;47.540;18.712;2022-07-10T07:41:13;2.25;;;1.40;;
56523;SDS011;42422;47.540;18.712;2022-07-10T07:43:38;2.42;;;1.30;;
56523;SDS011;42422;47.540;18.712;2022-07-10T07:46:04;1.05;;;0.75;;
56523;SDS011;42422;47.540;18.712;2022-07-10T07:48:31;3.97;;;1.38;;
56523;SDS011;42422;47.540;18.712;2022-07-10T07:50:56;2.58;;;1.40;;
56523;SDS011;42422;47.540;18.712;2022-07-10T07:53:22;3.13;;;1.45;;
56523;SDS011;42422;47.540;18.712;2022-07-10T07:55:47;2.22;;;1.00;;
56523;SDS011;42422;47.540;18.712;2022-07-10T07:58:13;3.20;;;1.30;;
56523;SDS011;42422;47.540;18.712;2022-07-10T08:00:38;2.00;;;1.20;;
56523;SDS011;42422;47.540;18.712;2022-07-10T08:03:04;2.00;;;1.15;;
56523;SDS011;42422;47.540;18.712;2022-07-10T08:05:29;2.28;;;1.15;;
56523;SDS011;42422;47.540;18.712;2022-07-10T08:07:56;3.03;;;1.30;;
56523;SDS011;42422;47.540;18.712;2022-07-10T08:10:24;2.17;;;1.52;;
56523;SDS011;42422;47.540;18.712;2022-07-10T08:12:51;2.20;;;1.10;;
56523;SDS011;42422;47.540;18.712;2022-07-10T08:15:18;2.85;;;1.27;;
56523;SDS011;42422;47.540;18.712;2022-07-10T08:17:47;1.90;;;1.30;;
56523;SDS011;42422;47.540;18.712;2022-07-10T08:20:13;4.68;;;1.20;;
56523;SDS011;42422;47.540;18.712;2022-07-10T08:22:42;2.90;;;1.00;;
56523;SDS011;42422;47.540;18.712;2022-07-10T08:25:08;2.58;;;1.08;;
56523;SDS011;42422;47.540;18.712;2022-07-10T08:27:34;2.17;;;1.30;;
56523;SDS011;42422;47.540;18.712;2022-07-10T08:30:00;1.88;;;0.90;;
56523;SDS011;42422;47.540;18.712;2022-07-10T08:32:25;4.20;;;0.90;;
56523;SDS011;42422;47.540;18.712;2022-07-10T08:34:52;1.30;;;1.00;;
56523;SDS011;42422;47.540;18.712;2022-07-10T08:37:17;1.20;;;1.00;;
56523;SDS011;42422;47.540;18.712;2022-07-10T08:39:44;4.35;;;1.10;;
56523;SDS011;42422;47.540;18.712;2022-07-10T08:42:10;3.38;;;1.10;;
56523;SDS011;42422;47.540;18.712;2022-07-10T08:44:36;3.35;;;1.20;;
56523;SDS011;42422;47.540;18.712;2022-07-10T08:47:02;1.77;;;1.20;;
56523;SDS011;42422;47.540;18.712;2022-07-10T08:49:29;2.67;;;1.10;;
56523;SDS011;42422;47.540;18.712;2022-07-10T08:54:21;3.35;;;1.23;;
56523;SDS011;42422;47.540;18.712;2022-07-10T08:56:47;2.83;;;1.35;;
56523;SDS011;42422;47.540;18.712;2022-07-10T08:59:12;3.97;;;1.15;;
56523;SDS011;42422;47.540;18.712;2022-07-10T09:01:39;2.72;;;1.17;;
56523;SDS011;42422;47.540;18.712;2022-07-10T09:04:04;2.58;;;1.15;;
56523;SDS011;42422;47.540;18.712;2022-07-10T09:06:30;1.92;;;1.20;;
56523;SDS011;42422;47.540;18.712;2022-07-10T09:09:05;2.10;;;1.20;;
56523;SDS011;42422;47.540;18.712;2022-07-10T09:11:33;1.05;;;0.80;;
56523;SDS011;42422;47.540;18.712;2022-07-10T09:14:03;2.22;;;1.13;;
56523;SDS011;42422;47.540;18.712;2022-07-10T09:16:30;2.53;;;1.05;;
56523;SDS011;42422;47.540;18.712;2022-07-10T09:18:57;4.57;;;1.20;;
56523;SDS011;42422;47.540;18.712;2022-07-10T09:22:06;3.17;;;1.00;;
56523;SDS011;42422;47.540;18.712;2022-07-10T09:24:35;2.70;;;1.00;;
56523;SDS011;42422;47.540;18.712;2022-07-10T09:27:11;1.80;;;1.02;;
56523;SDS011;42422;47.540;18.712;2022-07-10T09:29:44;1.65;;;0.82;;
56523;SDS011;42422;47.540;18.712;2022-07-10T09:32:11;2.08;;;0.85;;
56523;SDS011;42422;47.540;18.712;2022-07-10T09:34:40;1.52;;;0.98;;
56523;SDS011;42422;47.540;18.712;2022-07-10T09:39:51;1.15;;;0.70;;
56523;SDS011;42422;47.540;18.712;2022-07-10T09:47:36;0.97;;;0.70;;
56523;SDS011;42422;47.540;18.712;2022-07-10T09:50:02;1.88;;;0.85;;
56523;SDS011;42422;47.540;18.712;2022-07-10T09:52:29;2.15;;;1.10;;
56523;SDS011;42422;47.540;18.712;2022-07-10T09:54:55;1.25;;;0.70;;
56523;SDS011;42422;47.540;18.712;2022-07-10T09:57:21;2.55;;;1.15;;
56523;SDS011;42422;47.540;18.712;2022-07-10T09:59:48;1.50;;;0.73;;
56523;SDS011;42422;47.540;18.712;2022-07-10T10:02:17;3.70;;;1.58;;
56523;SDS011;42422;47.540;18.712;2022-07-10T10:04:46;1.70;;;1.00;;
56523;SDS011;42422;47.540;18.712;2022-07-10T10:07:12;3.50;;;0.80;;
56523;SDS011;42422;47.540;18.712;2022-07-10T10:09:47;1.25;;;0.65;;
56523;SDS011;42422;47.540;18.712;2022-07-10T10:12:31;1.90;;;0.75;;
56523;SDS011;42422;47.540;18.712;2022-07-10T10:15:01;2.13;;;0.90;;
56523;SDS011;42422;47.540;18.712;2022-07-10T10:17:39;2.28;;;1.10;;
56523;SDS011;42422;47.540;18.712;2022-07-10T10:20:05;2.15;;;1.10;;
56523;SDS011;42422;47.540;18.712;2022-07-10T10:22:51;13.93;;;5.73;;
56523;SDS011;42422;47.540;18.712;2022-07-10T10:25:17;12.32;;;4.30;;
56523;SDS011;42422;47.540;18.712;2022-07-10T10:27:44;4.30;;;2.47;;
56523;SDS011;42422;47.540;18.712;2022-07-10T10:30:11;4.43;;;2.70;;
56523;SDS011;42422;47.540;18.712;2022-07-10T10:32:40;2.30;;;1.30;;
56523;SDS011;42422;47.540;18.712;2022-07-10T10:35:07;0.90;;;0.70;;
56523;SDS011;42422;47.540;18.712;2022-07-10T10:37:40;4.47;;;0.85;;
56523;SDS011;42422;47.540;18.712;2022-07-10T10:40:09;1.25;;;0.80;;
56523;SDS011;42422;47.540;18.712;2022-07-10T10:42:42;3.22;;;0.90;;
56523;SDS011;42422;47.540;18.712;2022-07-10T10:56:20;1.77;;;0.93;;
56523;SDS011;42422;47.540;18.712;2022-07-10T11:06:42;4.80;;;1.63;;
56523;SDS011;42422;47.540;18.712;2022-07-10T11:09:21;2.67;;;0.90;;
56523;SDS011;42422;47.540;18.712;2022-07-10T11:12:07;1.70;;;1.20;;
56523;SDS011;42422;47.540;18.712;2022-07-10T11:14:34;1.73;;;0.80;;
56523;SDS011;42422;47.540;18.712;2022-07-10T11:17:02;1.42;;;0.70;;
56523;SDS011;42422;47.540;18.712;2022-07-10T11:19:29;2.50;;;0.80;;
56523;SDS011;42422;47.540;18.712;2022-07-10T11:21:58;2.28;;;0.80;;
56523;SDS011;42422;47.540;18.712;2022-07-10T11:30:46;1.55;;;1.00;;
56523;SDS011;42422;47.540;18.712;2022-07-10T11:33:12;1.83;;;0.90;;
56523;SDS011;42422;47.540;18.712;2022-07-10T11:35:38;3.05;;;1.00;;
56523;SDS011;42422;47.540;18.712;2022-07-10T11:38:20;3.45;;;1.25;;
56523;SDS011;42422;47.540;18.712;2022-07-10T11:41:11;2.70;;;1.40;;
56523;SDS011;42422;47.540;18.712;2022-07-10T11:43:51;1.40;;;0.80;;
56523;SDS011;42422;47.540;18.712;2022-07-10T11:46:20;5.68;;;1.10;;
56523;SDS011;42422;47.540;18.712;2022-07-10T11:48:51;1.70;;;1.20;;
56523;SDS011;42422;47.540;18.712;2022-07-10T11:51:23;1.25;;;0.80;;
56523;SDS011;42422;47.540;18.712;2022-07-10T11:56:48;1.30;;;0.80;;
56523;SDS011;42422;47.540;18.712;2022-07-10T11:59:18;2.17;;;0.75;;
56523;SDS011;42422;47.540;18.712;2022-07-10T12:01:53;2.28;;;0.85;;
56523;SDS011;42422;47.540;18.712;2022-07-10T12:04:28;3.97;;;1.10;;
56523;SDS011;42422;47.540;18.712;2022-07-10T12:06:58;3.20;;;0.98;;
56523;SDS011;42422;47.540;18.712;2022-07-10T12:13:07;3.55;;;0.85;;
56523;SDS011;42422;47.540;18.712;2022-07-10T12:18:53;1.38;;;0.70;;
56523;SDS011;42422;47.540;18.712;2022-07-10T12:21:21;3.22;;;0.90;;
56523;SDS011;42422;47.540;18.712;2022-07-10T12:24:00;4.65;;;1.00;;
56523;SDS011;42422;47.540;18.712;2022-07-10T12:26:33;1.83;;;0.80;;
56523;SDS011;42422;47.540;18.712;2022-07-10T12:29:01;3.13;;;0.98;;
56523;SDS011;42422;47.540;18.712;2022-07-10T12:32:00;1.23;;;0.80;;
56523;SDS011;42422;47.540;18.712;2022-07-10T12:34:39;3.72;;;0.95;;
56523;SDS011;42422;47.540;18.712;2022-07-10T12:38:16;1.77;;;1.02;;
56523;SDS011;42422;47.540;18.712;2022-07-10T12:45:24;1.20;;;0.60;;
56523;SDS011;42422;47.540;18.712;2022-07-10T12:47:56;3.70;;;1.00;;
56523;SDS011;42422;47.540;18.712;2022-07-10T12:50:35;7.93;;;0.95;;
56523;SDS011;42422;47.540;18.712;2022-07-10T12:57:29;2.97;;;0.70;;
56523;SDS011;42422;47.540;18.712;2022-07-10T13:00:30;2.90;;;0.70;;
56523;SDS011;42422;47.540;18.712;2022-07-10T13:03:42;3.15;;;0.80;;
56523;SDS011;42422;47.540;18.712;2022-07-10T13:08:54;2.28;;;1.00;;
56523;SDS011;42422;47.540;18.712;2022-07-10T13:11:22;2.55;;;0.80;;
56523;SDS011;42422;47.540;18.712;2022-07-10T13:14:00;3.40;;;0.70;;
56523;SDS011;42422;47.540;18.712;2022-07-10T13:16:48;5.18;;;0.85;;
56523;SDS011;42422;47.540;18.712;2022-07-10T13:19:13;1.92;;;0.90;;
56523;SDS011;42422;47.540;18.712;2022-07-10T13:21:42;3.17;;;1.15;;
56523;SDS011;42422;47.540;18.712;2022-07-10T13:24:08;2.22;;;1.05;;
56523;SDS011;42422;47.540;18.712;2022-07-10T13:26:37;1.25;;;0.77;;
56523;SDS011;42422;47.540;18.712;2022-07-10T13:29:03;3.50;;;0.85;;
56523;SDS011;42422;47.540;18.712;2022-07-10T13:31:43;2.50;;;1.00;;
56523;SDS011;42422;47.540;18.712;2022-07-10T13:34:09;2.38;;;0.75;;
56523;SDS011;42422;47.540;18.712;2022-07-10T13:36:34;1.05;;;0.90;;
56523;SDS011;42422;47.540;18.712;2022-07-10T13:39:00;3.28;;;1.02;;
56523;SDS011;42422;47.540;18.712;2022-07-10T13:41:26;4.57;;;1.20;;
56523;SDS011;42422;47.540;18.712;2022-07-10T13:43:52;2.60;;;0.93;;
56523;SDS011;42422;47.540;18.712;2022-07-10T13:46:17;3.60;;;1.00;;
56523;SDS011;42422;47.540;18.712;2022-07-10T13:48:43;1.73;;;0.80;;
56523;SDS011;42422;47.540;18.712;2022-07-10T13:51:09;1.63;;;0.93;;
56523;SDS011;42422;47.540;18.712;2022-07-10T13:53:35;4.60;;;1.10;;
56523;SDS011;42422;47.540;18.712;2022-07-10T13:56:03;2.85;;;1.10;;
56523;SDS011;42422;47.540;18.712;2022-07-10T13:58:35;2.45;;;0.90;;
56523;SDS011;42422;47.540;18.712;2022-07-10T14:01:07;1.70;;;0.63;;
56523;SDS011;42422;47.540;18.712;2022-07-10T14:03:33;2.38;;;1.02;;
56523;SDS011;42422;47.540;18.712;2022-07-10T14:05:58;2.58;;;0.85;;
56523;SDS011;42422;47.540;18.712;2022-07-10T14:08:24;4.57;;;0.85;;
56523;SDS011;42422;47.540;18.712;2022-07-10T14:10:53;3.65;;;0.80;;
56523;SDS011;42422;47.540;18.712;2022-07-10T14:13:19;3.15;;;0.75;;
56523;SDS011;42422;47.540;18.712;2022-07-10T14:15:44;1.60;;;0.65;;
56523;SDS011;42422;47.540;18.712;2022-07-10T14:18:10;1.42;;;1.05;;
56523;SDS011;42422;47.540;18.712;2022-07-10T14:20:36;3.83;;;0.90;;
56523;SDS011;42422;47.540;18.712;2022-07-10T14:23:20;2.47;;;1.15;;
56523;SDS011;42422;47.540;18.712;2022-07-10T14:25:45;3.95;;;0.93;;
56523;SDS011;42422;47.540;18.712;2022-07-10T14:28:11;1.17;;;0.70;;
56523;SDS011;42422;47.540;18.712;2022-07-10T14:30:54;4.97;;;0.88;;
56523;SDS011;42422;47.540;18.712;2022-07-10T14:33:20;1.70;;;0.50;;
56523;SDS011;42422;47.540;18.712;2022-07-10T14:35:45;1.38;;;0.73;;
56523;SDS011;42422;47.540;18.712;2022-07-10T14:38:11;6.35;;;0.70;;
56523;SDS011;42422;47.540;18.712;2022-07-10T14:41:00;2.65;;;0.80;;
56523;SDS011;42422;47.540;18.712;2022-07-10T14:43:26;1.95;;;0.70;;
56523;SDS011;42422;47.540;18.712;2022-07-10T14:45:52;6.78;;;1.00;;
56523;SDS011;42422;47.540;18.712;2022-07-10T14:48:18;1.00;;;0.50;;
56523;SDS011;42422;47.540;18.712;2022-07-10T14:50:44;1.52;;;0.70;;
56523;SDS011;42422;47.540;18.712;2022-07-10T14:53:09;2.83;;;1.00;;
56523;SDS011;42422;47.540;18.712;2022-07-10T14:55:36;3.13;;;0.80;;
56523;SDS011;42422;47.540;18.712;2022-07-10T14:58:01;3.08;;;0.98;;
56523;SDS011;42422;47.540;18.712;2022-07-10T15:00:27;4.53;;;1.00;;
56523;SDS011;42422;47.540;18.712;2022-07-10T15:02:52;2.42;;;0.70;;
56523;SDS011;42422;47.540;18.712;2022-07-10T15:05:20;2.88;;;0.70;;
56523;SDS011;42422;47.540;18.712;2022-07-10T15:07:47;1.95;;;0.63;;
56523;SDS011;42422;47.540;18.712;2022-07-10T15:10:12;1.63;;;0.50;;
56523;SDS011;42422;47.540;18.712;2022-07-10T15:12:41;4.00;;;1.45;;
56523;SDS011;42422;47.540;18.712;2022-07-10T15:15:09;2.55;;;0.52;;
56523;SDS011;42422;47.540;18.712;2022-07-10T15:17:38;4.60;;;0.88;;
56523;SDS011;42422;47.540;18.712;2022-07-10T15:20:06;1.42;;;0.60;;
56523;SDS011;42422;47.540;18.712;2022-07-10T15:22:35;1.15;;;0.60;;
56523;SDS011;42422;47.540;18.712;2022-07-10T15:25:00;1.33;;;0.60;;
56523;SDS011;42422;47.540;18.712;2022-07-10T15:27:26;3.17;;;0.43;;
56523;SDS011;42422;47.540;18.712;2022-07-10T15:29:53;3.70;;;0.55;;
56523;SDS011;42422;47.540;18.712;2022-07-10T15:32:19;3.13;;;0.60;;
56523;SDS011;42422;47.540;18.712;2022-07-10T15:34:45;3.88;;;0.95;;
56523;SDS011;42422;47.540;18.712;2022-07-10T15:37:10;3.10;;;0.52;;